Time,TemperatureF,DewpointF,PressureIn,WindDirection,WindDirectionDegrees,WindSpeedMPH,WindSpeedGustMPH,Humidity,HourlyPrecipIn,Conditions,Clouds,dailyrainin,SoftwareType,DateUTC
2013-05-28 00:00:00,50.3,45.7,30.17,WSW,248,0.0,0.0,84,0.00,,,0.00,WeatherTracker,2013-05-28 04:00:00,
2013-05-28 00:05:00,50.2,45.6,30.17,WSW,248,0.0,0.0,84,0.00,,,0.00,WeatherTracker,2013-05-28 04:05:00,
2013-05-28 00:10:00,50.0,45.7,30.18,SE,132,3.0,0.0,85,0.00,,,0.00,WeatherTracker,2013-05-28 04:10:00,
2013-05-28 00:15:00,49.9,45.9,30.18,ESE,109,0.0,0.0,86,0.00,,,0.00,WeatherTracker,2013-05-28 04:15:00,
2013-05-28 00:20:00,49.7,46.0,30.18,ESE,109,1.0,0.0,87,0.00,,,0.00,WeatherTracker,2013-05-28 04:20:00,
2013-05-28 00:25:00,49.6,45.9,30.18,ESE,111,0.0,0.0,87,0.00,,,0.00,WeatherTracker,2013-05-28 04:25:00,
2013-05-28 00:35:00,49.4,45.7,30.18,ESE,111,0.0,0.0,87,0.00,,,0.00,WeatherTracker,2013-05-28 04:35:00,
2013-05-28 00:40:00,49.3,45.6,30.18,ESE,111,0.0,0.0,87,0.00,,,0.00,WeatherTracker,2013-05-28 04:40:00,
2013-05-28 00:50:00,49.0,45.3,30.19,ESE,111,0.0,0.0,87,0.00,,,0.00,WeatherTracker,2013-05-28 04:50:00,
2013-05-28 01:00:00,48.8,45.4,30.19,ESE,111,0.0,0.0,88,0.00,,,0.00,WeatherTracker,2013-05-28 05:00:00,
2013-05-28 01:05:00,48.6,45.2,30.18,ESE,111,0.0,0.0,88,0.00,,,0.00,WeatherTracker,2013-05-28 05:05:00,
2013-05-28 01:15:00,48.3,44.9,30.19,ESE,111,0.0,0.0,88,0.00,,,0.00,WeatherTracker,2013-05-28 05:15:00,
2013-05-28 01:25:00,48.0,44.6,30.19,ESE,111,0.0,0.0,88,0.00,,,0.00,WeatherTracker,2013-05-28 05:25:00,
2013-05-28 01:35:00,47.8,44.7,30.20,ESE,111,0.0,0.0,89,0.00,,,0.00,WeatherTracker,2013-05-28 05:35:00,
2013-05-28 01:40:00,47.6,44.5,30.20,ESE,111,0.0,0.0,89,0.00,,,0.00,WeatherTracker,2013-05-28 05:40:00,
2013-05-28 01:45:00,47.4,44.3,30.20,ESE,111,0.0,0.0,89,0.00,,,0.00,WeatherTracker,2013-05-28 05:45:00,
2013-05-28 01:55:00,47.2,44.7,30.20,ESE,111,0.0,0.0,91,0.00,,,0.00,WeatherTracker,2013-05-28 05:55:00,
2013-05-28 02:00:00,47.0,44.5,30.20,ESE,111,0.0,0.0,91,0.00,,,0.00,WeatherTracker,2013-05-28 06:00:00,
2013-05-28 02:10:00,46.8,44.3,30.20,ESE,111,0.0,0.0,91,0.00,,,0.00,WeatherTracker,2013-05-28 06:10:00,
2013-05-28 02:15:00,46.7,44.2,30.20,ESE,111,0.0,0.0,91,0.00,,,0.00,WeatherTracker,2013-05-28 06:15:00,
2013-05-28 02:25:00,46.5,44.3,30.20,ESE,111,0.0,0.0,92,0.00,,,0.00,WeatherTracker,2013-05-28 06:25:00,
2013-05-28 02:35:00,46.2,44.0,30.20,ESE,111,0.0,0.0,92,0.00,,,0.00,WeatherTracker,2013-05-28 06:35:00,
2013-05-28 02:40:00,46.1,43.9,30.20,ESE,111,0.0,0.0,92,0.00,,,0.00,WeatherTracker,2013-05-28 06:40:00,
2013-05-28 02:45:00,46.0,43.8,30.20,ESE,111,0.0,0.0,92,0.00,,,0.00,WeatherTracker,2013-05-28 06:45:00,
2013-05-28 02:50:00,45.9,43.7,30.20,ESE,111,0.0,0.0,92,0.00,,,0.00,WeatherTracker,2013-05-28 06:50:00,
2013-05-28 03:00:00,45.7,43.5,30.20,ESE,111,0.0,0.0,92,0.00,,,0.00,WeatherTracker,2013-05-28 07:00:00,
2013-05-28 03:10:00,45.4,43.5,30.20,ESE,111,0.0,0.0,93,0.00,,,0.00,WeatherTracker,2013-05-28 07:10:00,
2013-05-28 03:15:00,45.4,43.2,30.20,ESE,111,0.0,0.0,92,0.00,,,0.00,WeatherTracker,2013-05-28 07:15:00,
2013-05-28 03:25:00,45.1,42.9,30.20,ESE,111,0.0,0.0,92,0.00,,,0.00,WeatherTracker,2013-05-28 07:25:00,
2013-05-28 03:30:00,45.0,43.1,30.20,ESE,111,0.0,0.0,93,0.00,,,0.00,WeatherTracker,2013-05-28 07:30:00,
2013-05-28 03:40:00,44.8,42.9,30.20,ESE,111,0.0,0.0,93,0.00,,,0.00,WeatherTracker,2013-05-28 07:40:00,
2013-05-28 03:45:00,44.7,42.8,30.20,ESE,111,0.0,0.0,93,0.00,,,0.00,WeatherTracker,2013-05-28 07:45:00,
2013-05-28 03:55:00,44.5,42.6,30.20,ESE,111,0.0,0.0,93,0.00,,,0.00,WeatherTracker,2013-05-28 07:55:00,
2013-05-28 04:00:00,44.3,42.4,30.20,ESE,111,0.0,0.0,93,0.00,,,0.00,WeatherTracker,2013-05-28 08:00:00,
2013-05-28 04:10:00,44.1,42.5,30.20,ESE,111,0.0,0.0,94,0.00,,,0.00,WeatherTracker,2013-05-28 08:10:00,
2013-05-28 04:20:00,44.0,42.1,30.20,ESE,111,0.0,0.0,93,0.00,,,0.00,WeatherTracker,2013-05-28 08:20:00,
2013-05-28 04:30:00,43.8,41.9,30.20,ESE,111,0.0,0.0,93,0.00,,,0.00,WeatherTracker,2013-05-28 08:30:00,
2013-05-28 04:35:00,43.6,41.7,30.20,ESE,111,0.0,0.0,93,0.00,,,0.00,WeatherTracker,2013-05-28 08:35:00,
2013-05-28 04:40:00,43.6,41.7,30.20,ESE,111,0.0,0.0,93,0.00,,,0.00,WeatherTracker,2013-05-28 08:40:00,
2013-05-28 04:45:00,43.5,41.6,30.20,ESE,111,0.0,0.0,93,0.00,,,0.00,WeatherTracker,2013-05-28 08:45:00,
2013-05-28 04:55:00,43.3,41.7,30.20,ESE,111,0.0,0.0,94,0.00,,,0.00,WeatherTracker,2013-05-28 08:55:00,
2013-05-28 05:00:00,43.2,41.6,30.20,ESE,111,0.0,0.0,94,0.00,,,0.00,WeatherTracker,2013-05-28 09:00:00,
2013-05-28 05:05:00,43.1,41.5,30.20,ESE,111,0.0,0.0,94,0.00,,,0.00,WeatherTracker,2013-05-28 09:05:00,
2013-05-28 05:15:00,43.0,41.4,30.20,ESE,111,0.0,0.0,94,0.00,,,0.00,WeatherTracker,2013-05-28 09:15:00,
2013-05-28 05:20:00,42.9,41.3,30.21,ESE,111,0.0,0.0,94,0.00,,,0.00,WeatherTracker,2013-05-28 09:20:00,
2013-05-28 05:25:00,42.9,41.3,30.21,ESE,111,0.0,0.0,94,0.00,,,0.00,WeatherTracker,2013-05-28 09:25:00,
2013-05-28 05:35:00,42.8,41.5,30.21,ESE,120,0.0,0.0,95,0.00,,,0.00,WeatherTracker,2013-05-28 09:35:00,
2013-05-28 05:40:00,42.7,41.4,30.21,ESE,120,0.0,0.0,95,0.00,,,0.00,WeatherTracker,2013-05-28 09:40:00,
2013-05-28 05:45:00,42.8,41.5,30.22,ESE,120,0.0,0.0,95,0.00,,,0.00,WeatherTracker,2013-05-28 09:45:00,
2013-05-28 05:55:00,42.8,41.5,30.22,ESE,119,0.0,0.0,95,0.00,,,0.00,WeatherTracker,2013-05-28 09:55:00,
2013-05-28 06:00:00,42.8,41.5,30.22,ESE,119,0.0,0.0,95,0.00,,,0.00,WeatherTracker,2013-05-28 10:00:00,
2013-05-28 06:10:00,43.3,42.2,30.22,ESE,119,0.0,0.0,96,0.00,,,0.00,WeatherTracker,2013-05-28 10:10:00,
2013-05-28 06:15:00,43.6,42.8,30.22,ESE,119,0.0,0.0,97,0.00,,,0.00,WeatherTracker,2013-05-28 10:15:00,
2013-05-28 06:20:00,43.9,43.1,30.23,ESE,119,0.0,0.0,97,0.00,,,0.00,WeatherTracker,2013-05-28 10:20:00,
2013-05-28 06:30:00,44.9,44.1,30.23,ESE,119,0.0,0.0,97,0.00,,,0.00,WeatherTracker,2013-05-28 10:30:00,
2013-05-28 06:35:00,45.6,44.8,30.23,ESE,119,0.0,0.0,97,0.00,,,0.00,WeatherTracker,2013-05-28 10:35:00,
2013-05-28 06:45:00,46.8,46.0,30.23,ESE,121,0.0,0.0,97,0.00,,,0.00,WeatherTracker,2013-05-28 10:45:00,
2013-05-28 06:50:00,47.4,46.6,30.23,ESE,121,0.0,0.0,97,0.00,,,0.00,WeatherTracker,2013-05-28 10:50:00,
2013-05-28 07:00:00,49.0,47.9,30.23,ESE,121,0.0,0.0,96,0.00,,,0.00,WeatherTracker,2013-05-28 11:00:00,
2013-05-28 07:05:00,50.1,48.2,30.23,ESE,121,1.0,0.0,93,0.00,,,0.00,WeatherTracker,2013-05-28 11:05:00,
2013-05-28 07:10:00,51.0,47.3,30.23,ESE,123,2.0,0.0,87,0.00,,,0.00,WeatherTracker,2013-05-28 11:10:00,
2013-05-28 07:15:00,51.9,47.2,30.23,ESE,120,0.0,0.0,84,0.00,,,0.00,WeatherTracker,2013-05-28 11:15:00,
2013-05-28 07:25:00,53.3,46.6,30.24,ESE,113,0.0,0.0,78,0.00,,,0.00,WeatherTracker,2013-05-28 11:25:00,
2013-05-28 07:35:00,54.4,46.3,30.24,ESE,110,1.0,0.0,74,0.00,,,0.00,WeatherTracker,2013-05-28 11:35:00,
2013-05-28 07:40:00,54.9,46.0,30.24,SE,126,2.0,0.0,72,0.00,,,0.00,WeatherTracker,2013-05-28 11:40:00,
2013-05-28 07:50:00,55.8,45.0,30.24,SE,134,2.0,0.0,67,0.00,,,0.00,WeatherTracker,2013-05-28 11:50:00,
2013-05-28 07:55:00,56.4,44.8,30.24,East,86,0.0,0.0,65,0.00,,,0.00,WeatherTracker,2013-05-28 11:55:00,
2013-05-28 08:05:00,56.6,44.2,30.24,East,82,3.0,0.0,63,0.00,,,0.00,WeatherTracker,2013-05-28 12:05:00,
2013-05-28 08:10:00,57.0,45.4,30.24,ENE,66,1.0,0.0,65,0.00,,,0.00,WeatherTracker,2013-05-28 12:10:00,
2013-05-28 08:15:00,57.4,45.3,30.24,ENE,71,0.0,0.0,64,0.00,,,0.00,WeatherTracker,2013-05-28 12:15:00,
2013-05-28 08:25:00,59.0,46.0,30.24,South,173,0.0,0.0,62,0.00,,,0.00,WeatherTracker,2013-05-28 12:25:00,
2013-05-28 08:30:00,59.8,45.0,30.24,South,185,2.0,0.0,58,0.00,,,0.00,WeatherTracker,2013-05-28 12:30:00,
2013-05-28 08:35:00,60.1,45.3,30.24,SSE,151,1.0,0.0,58,0.00,,,0.00,WeatherTracker,2013-05-28 12:35:00,
2013-05-28 08:40:00,60.7,45.4,30.24,SSE,150,0.0,0.0,57,0.00,,,0.00,WeatherTracker,2013-05-28 12:40:00,
2013-05-28 08:45:00,61.1,45.7,30.24,SSW,194,1.0,0.0,57,0.00,,,0.00,WeatherTracker,2013-05-28 12:45:00,
2013-05-28 08:55:00,62.2,46.3,30.23,ENE,58,1.0,0.0,56,0.00,,,0.00,WeatherTracker,2013-05-28 12:55:00,
2013-05-28 09:00:00,62.4,46.5,30.24,East,80,1.0,0.0,56,0.00,,,0.00,WeatherTracker,2013-05-28 13:00:00,
2013-05-28 09:05:00,62.6,45.7,30.24,SE,130,2.0,0.0,54,0.00,,,0.00,WeatherTracker,2013-05-28 13:05:00,
2013-05-28 09:10:00,63.2,45.8,30.24,SE,143,1.0,0.0,53,0.00,,,0.00,WeatherTracker,2013-05-28 13:10:00,
2013-05-28 09:15:00,64.2,45.7,30.24,SE,146,2.0,0.0,51,0.00,,,0.00,WeatherTracker,2013-05-28 13:15:00,
2013-05-28 09:20:00,64.1,45.6,30.23,ESE,107,3.0,0.0,51,0.00,,,0.00,WeatherTracker,2013-05-28 13:20:00,
2013-05-28 09:25:00,63.8,45.8,30.24,ESE,113,1.0,0.0,52,0.00,,,0.00,WeatherTracker,2013-05-28 13:25:00,
2013-05-28 09:30:00,64.0,46.0,30.23,ESE,123,3.0,0.0,52,0.00,,,0.00,WeatherTracker,2013-05-28 13:30:00,
2013-05-28 09:40:00,65.4,45.2,30.23,SE,130,2.0,0.0,48,0.00,,,0.00,WeatherTracker,2013-05-28 13:40:00,
2013-05-28 09:45:00,65.5,44.7,30.23,SE,129,0.0,0.0,47,0.00,,,0.00,WeatherTracker,2013-05-28 13:45:00,
2013-05-28 09:50:00,66.0,45.2,30.23,SSE,163,2.0,0.0,47,0.00,,,0.00,WeatherTracker,2013-05-28 13:50:00,
2013-05-28 09:55:00,66.5,45.1,30.23,SW,217,3.0,0.0,46,0.00,,,0.00,WeatherTracker,2013-05-28 13:55:00,
2013-05-28 10:00:00,66.8,43.6,30.23,WNW,291,2.0,0.0,43,0.00,,,0.00,WeatherTracker,2013-05-28 14:00:00,
2013-05-28 10:05:00,67.2,43.9,30.23,West,259,2.0,0.0,43,0.00,,,0.00,WeatherTracker,2013-05-28 14:05:00,
2013-05-28 10:15:00,67.6,43.1,30.23,SSE,157,1.0,0.0,41,0.00,,,0.00,WeatherTracker,2013-05-28 14:15:00,
2013-05-28 10:20:00,67.9,44.0,30.23,South,178,0.0,0.0,42,0.00,,,0.00,WeatherTracker,2013-05-28 14:20:00,
2013-05-28 10:25:00,68.3,43.0,30.23,SSW,206,2.0,0.0,40,0.00,,,0.00,WeatherTracker,2013-05-28 14:25:00,
2013-05-28 10:35:00,68.7,44.0,30.23,SW,217,0.0,0.0,41,0.00,,,0.00,WeatherTracker,2013-05-28 14:35:00,
2013-05-28 10:45:00,69.1,44.4,30.23,South,187,1.0,0.0,41,0.00,,,0.00,WeatherTracker,2013-05-28 14:45:00,
2013-05-28 10:50:00,69.4,44.0,30.23,WSW,245,0.0,0.0,40,0.00,,,0.00,WeatherTracker,2013-05-28 14:50:00,
2013-05-28 10:55:00,69.9,44.5,30.23,West,273,0.0,0.0,40,0.00,,,0.00,WeatherTracker,2013-05-28 14:55:00,
2013-05-28 11:05:00,69.8,43.7,30.24,SE,128,2.0,0.0,39,0.00,,,0.00,WeatherTracker,2013-05-28 15:05:00,
2013-05-28 11:10:00,69.7,44.3,30.24,West,272,5.0,0.0,40,0.00,,,0.00,WeatherTracker,2013-05-28 15:10:00,
2013-05-28 11:20:00,69.7,44.3,30.24,South,173,1.0,0.0,40,0.00,,,0.00,WeatherTracker,2013-05-28 15:20:00,
2013-05-28 11:25:00,70.3,44.2,30.24,North,360,5.0,0.0,39,0.00,,,0.00,WeatherTracker,2013-05-28 15:25:00,
2013-05-28 11:30:00,70.8,43.9,30.23,West,261,6.0,0.0,38,0.00,,,0.00,WeatherTracker,2013-05-28 15:30:00,
2013-05-28 11:35:00,70.8,44.6,30.24,WSW,238,1.0,0.0,39,0.00,,,0.00,WeatherTracker,2013-05-28 15:35:00,
2013-05-28 11:40:00,70.8,45.3,30.24,WSW,252,5.0,0.0,40,0.00,,,0.00,WeatherTracker,2013-05-28 15:40:00,
2013-05-28 11:45:00,70.7,43.8,30.23,SW,218,2.0,0.0,38,0.00,,,0.00,WeatherTracker,2013-05-28 15:45:00,
2013-05-28 11:50:00,70.8,44.6,30.23,South,176,1.0,0.0,39,0.00,,,0.00,WeatherTracker,2013-05-28 15:50:00,
2013-05-28 12:00:00,71.8,44.8,30.23,WNW,289,1.0,0.0,38,0.00,,,0.00,WeatherTracker,2013-05-28 16:00:00,
2013-05-28 12:10:00,72.5,44.7,30.23,WNW,292,1.0,0.0,37,0.00,,,0.00,WeatherTracker,2013-05-28 16:10:00,
2013-05-28 12:15:00,72.5,41.7,30.23,NW,304,3.0,0.0,33,0.00,,,0.00,WeatherTracker,2013-05-28 16:15:00,
2013-05-28 12:20:00,72.7,42.7,30.22,NNE,32,3.0,0.0,34,0.00,,,0.00,WeatherTracker,2013-05-28 16:20:00,
2013-05-28 12:30:00,72.9,42.1,30.22,WNW,288,4.0,0.0,33,0.00,,,0.00,WeatherTracker,2013-05-28 16:30:00,
2013-05-28 12:35:00,73.1,42.3,30.21,West,267,4.0,0.0,33,0.00,,,0.00,WeatherTracker,2013-05-28 16:35:00,
2013-05-28 12:45:00,73.6,41.9,30.21,South,178,4.0,0.0,32,0.00,,,0.00,WeatherTracker,2013-05-28 16:45:00,
2013-05-28 12:50:00,73.7,40.3,30.21,SSW,200,0.0,0.0,30,0.00,,,0.00,WeatherTracker,2013-05-28 16:50:00,
2013-05-28 12:55:00,74.4,42.6,30.21,SW,223,4.0,0.0,32,0.00,,,0.00,WeatherTracker,2013-05-28 16:55:00,
2013-05-28 13:05:00,74.6,41.1,30.21,NNW,329,3.0,0.0,30,0.00,,,0.00,WeatherTracker,2013-05-28 17:05:00,
2013-05-28 13:10:00,74.6,41.1,30.21,SW,231,1.0,0.0,30,0.00,,,0.00,WeatherTracker,2013-05-28 17:10:00,
2013-05-28 13:15:00,74.6,40.2,30.21,NNW,331,1.0,0.0,29,0.00,,,0.00,WeatherTracker,2013-05-28 17:15:00,
2013-05-28 13:25:00,75.2,40.7,30.20,ENE,78,1.0,0.0,29,0.00,,,0.00,WeatherTracker,2013-05-28 17:25:00,
2013-05-28 13:30:00,75.7,41.2,30.20,ENE,59,0.0,0.0,29,0.00,,,0.00,WeatherTracker,2013-05-28 17:30:00,
2013-05-28 13:35:00,76.1,41.5,30.20,NW,306,6.0,0.0,29,0.00,,,0.00,WeatherTracker,2013-05-28 17:35:00,
2013-05-28 13:40:00,75.9,40.4,30.20,NNW,328,3.0,0.0,28,0.00,,,0.00,WeatherTracker,2013-05-28 17:40:00,
2013-05-28 13:45:00,76.0,40.5,30.20,WNW,283,0.0,0.0,28,0.00,,,0.00,WeatherTracker,2013-05-28 17:45:00,
2013-05-28 13:50:00,76.1,41.5,30.19,ESE,115,2.0,0.0,29,0.00,,,0.00,WeatherTracker,2013-05-28 17:50:00,
2013-05-28 14:00:00,75.9,42.2,30.19,ENE,61,3.0,0.0,30,0.00,,,0.00,WeatherTracker,2013-05-28 18:00:00,
2013-05-28 14:10:00,75.4,40.9,30.19,WNW,294,2.0,0.0,29,0.00,,,0.00,WeatherTracker,2013-05-28 18:10:00,
2013-05-28 14:15:00,75.5,39.2,30.19,NE,44,2.0,0.0,27,0.00,,,0.00,WeatherTracker,2013-05-28 18:15:00,
2013-05-28 14:20:00,75.4,38.1,30.19,ESE,103,1.0,0.0,26,0.00,,,0.00,WeatherTracker,2013-05-28 18:20:00,
2013-05-28 14:25:00,75.8,40.4,30.18,NNW,341,6.0,0.0,28,0.00,,,0.00,WeatherTracker,2013-05-28 18:25:00,
2013-05-28 14:30:00,76.0,40.5,30.18,NW,317,2.0,0.0,28,0.00,,,0.00,WeatherTracker,2013-05-28 18:30:00,
2013-05-28 14:35:00,76.0,41.4,30.18,NE,47,3.0,0.0,29,0.00,,,0.00,WeatherTracker,2013-05-28 18:35:00,
2013-05-28 14:40:00,76.0,42.3,30.18,WNW,284,3.0,0.0,30,0.00,,,0.00,WeatherTracker,2013-05-28 18:40:00,
2013-05-28 14:50:00,76.2,42.5,30.18,West,267,3.0,0.0,30,0.00,,,0.00,WeatherTracker,2013-05-28 18:50:00,
2013-05-28 14:55:00,76.2,41.6,30.18,ESE,115,2.0,0.0,29,0.00,,,0.00,WeatherTracker,2013-05-28 18:55:00,
2013-05-28 15:05:00,76.5,42.7,30.17,West,280,2.0,0.0,30,0.00,,,0.00,WeatherTracker,2013-05-28 19:05:00,
2013-05-28 15:15:00,77.6,41.9,30.17,East,92,3.0,0.0,28,0.00,,,0.00,WeatherTracker,2013-05-28 19:15:00,
2013-05-28 15:20:00,77.1,41.5,30.17,WSW,256,4.0,0.0,28,0.00,,,0.00,WeatherTracker,2013-05-28 19:20:00,
2013-05-28 15:30:00,76.8,42.1,30.17,West,265,4.0,0.0,29,0.00,,,0.00,WeatherTracker,2013-05-28 19:30:00,
2013-05-28 15:35:00,76.9,41.3,30.17,NW,326,2.0,0.0,28,0.00,,,0.00,WeatherTracker,2013-05-28 19:35:00,
2013-05-28 15:40:00,77.2,41.6,30.17,NW,313,1.0,0.0,28,0.00,,,0.00,WeatherTracker,2013-05-28 19:40:00,
2013-05-28 15:50:00,77.6,42.8,30.17,West,279,2.0,0.0,29,0.00,,,0.00,WeatherTracker,2013-05-28 19:50:00,
2013-05-28 16:00:00,76.9,41.3,30.16,WSW,254,4.0,0.0,28,0.00,,,0.00,WeatherTracker,2013-05-28 20:00:00,
2013-05-28 16:05:00,76.6,40.1,30.16,WNW,299,3.0,0.0,27,0.00,,,0.00,WeatherTracker,2013-05-28 20:05:00,
2013-05-28 16:10:00,76.2,41.6,30.16,SW,229,4.0,0.0,29,0.00,,,0.00,WeatherTracker,2013-05-28 20:10:00,
2013-05-28 16:15:00,76.1,42.4,30.16,WSW,248,2.0,0.0,30,0.00,,,0.00,WeatherTracker,2013-05-28 20:15:00,
2013-05-28 16:20:00,75.7,45.3,30.16,NE,37,0.0,0.0,34,0.00,,,0.00,WeatherTracker,2013-05-28 20:20:00,
2013-05-28 16:30:00,74.4,46.4,30.16,SSW,195,4.0,0.0,37,0.00,,,0.00,WeatherTracker,2013-05-28 20:30:00,
2013-05-28 16:35:00,73.3,46.8,30.17,East,96,3.0,0.0,39,0.00,,,0.00,WeatherTracker,2013-05-28 20:35:00,
2013-05-28 16:40:00,72.2,46.5,30.17,SSE,155,4.0,0.0,40,0.00,,,0.00,WeatherTracker,2013-05-28 20:40:00,
2013-05-28 16:45:00,71.5,46.6,30.17,SSE,163,5.0,0.0,41,0.00,,,0.00,WeatherTracker,2013-05-28 20:45:00,
2013-05-28 16:50:00,71.4,47.1,30.17,East,82,3.0,0.0,42,0.00,,,0.00,WeatherTracker,2013-05-28 20:50:00,
2013-05-28 17:00:00,70.7,46.5,30.16,SSE,151,2.0,0.0,42,0.00,,,0.00,WeatherTracker,2013-05-28 21:00:00,
2013-05-28 17:10:00,70.5,47.5,30.16,SE,128,2.0,0.0,44,0.00,,,0.00,WeatherTracker,2013-05-28 21:10:00,
2013-05-28 17:15:00,70.5,47.5,30.16,ESE,105,3.0,0.0,44,0.00,,,0.00,WeatherTracker,2013-05-28 21:15:00,
2013-05-28 17:20:00,70.4,48.0,30.16,SSE,150,3.0,0.0,45,0.00,,,0.00,WeatherTracker,2013-05-28 21:20:00,
2013-05-28 17:25:00,70.3,47.9,30.16,East,100,2.0,0.0,45,0.00,,,0.00,WeatherTracker,2013-05-28 21:25:00,
2013-05-28 17:35:00,69.9,48.7,30.16,ESE,108,3.0,0.0,47,0.00,,,0.00,WeatherTracker,2013-05-28 21:35:00,
2013-05-28 17:45:00,69.9,48.7,30.16,South,178,1.0,0.0,47,0.00,,,0.00,WeatherTracker,2013-05-28 21:45:00,
2013-05-28 17:55:00,69.8,49.2,30.16,SSE,151,1.0,0.0,48,0.00,,,0.00,WeatherTracker,2013-05-28 21:55:00,
2013-05-28 18:00:00,69.9,49.3,30.16,SSE,152,0.0,0.0,48,0.00,,,0.00,WeatherTracker,2013-05-28 22:00:00,
2013-05-28 18:10:00,69.6,49.6,30.15,South,175,3.0,0.0,49,0.00,,,0.00,WeatherTracker,2013-05-28 22:10:00,
2013-05-28 18:20:00,69.4,50.5,30.16,SE,135,1.0,0.0,51,0.00,,,0.00,WeatherTracker,2013-05-28 22:20:00,
2013-05-28 18:25:00,69.4,50.5,30.15,SE,134,0.0,0.0,51,0.00,,,0.00,WeatherTracker,2013-05-28 22:25:00,
2013-05-28 18:30:00,69.5,50.6,30.15,SE,136,2.0,0.0,51,0.00,,,0.00,WeatherTracker,2013-05-28 22:30:00,
2013-05-28 18:40:00,69.5,51.6,30.15,ESE,108,0.0,0.0,53,0.00,,,0.00,WeatherTracker,2013-05-28 22:40:00,
2013-05-28 18:50:00,69.4,51.5,30.15,South,174,0.0,0.0,53,0.00,,,0.00,WeatherTracker,2013-05-28 22:50:00,
2013-05-28 18:55:00,69.4,51.5,30.15,South,176,1.0,0.0,53,0.00,,,0.00,WeatherTracker,2013-05-28 22:55:00,
2013-05-28 19:00:00,69.3,51.9,30.15,SSW,196,0.0,0.0,54,0.00,,,0.00,WeatherTracker,2013-05-28 23:00:00,
2013-05-28 19:05:00,69.3,51.9,30.15,SSW,196,0.0,0.0,54,0.00,,,0.00,WeatherTracker,2013-05-28 23:05:00,
2013-05-28 19:10:00,69.2,52.3,30.15,South,188,0.0,0.0,55,0.00,,,0.00,WeatherTracker,2013-05-28 23:10:00,
2013-05-28 19:15:00,69.1,52.7,30.15,South,190,0.0,0.0,56,0.00,,,0.00,WeatherTracker,2013-05-28 23:15:00,
2013-05-28 19:25:00,68.8,51.5,30.15,South,190,0.0,0.0,54,0.00,,,0.00,WeatherTracker,2013-05-28 23:25:00,
2013-05-28 19:35:00,68.6,52.3,30.15,South,190,0.0,0.0,56,0.00,,,0.00,WeatherTracker,2013-05-28 23:35:00,
2013-05-28 19:40:00,68.4,52.1,30.15,SW,220,0.0,0.0,56,0.00,,,0.00,WeatherTracker,2013-05-28 23:40:00,
2013-05-28 19:50:00,67.7,50.9,30.16,WNW,284,7.0,0.0,55,0.00,,,0.00,WeatherTracker,2013-05-28 23:50:00,
2013-05-28 19:55:00,67.3,50.1,30.16,WNW,295,7.0,0.0,54,0.00,,,0.00,WeatherTracker,2013-05-28 23:55:00,
2013-05-28 20:05:00,66.7,50.5,30.16,West,271,4.0,0.0,56,0.00,,,0.00,WeatherTracker,2013-05-29 00:05:00,
2013-05-28 20:15:00,66.1,50.9,30.16,WSW,254,3.0,0.0,58,0.00,,,0.00,WeatherTracker,2013-05-29 00:15:00,
2013-05-28 20:25:00,65.5,50.8,30.16,SW,218,4.0,0.0,59,0.00,,,0.00,WeatherTracker,2013-05-29 00:25:00,
2013-05-28 20:30:00,65.2,51.0,30.17,West,277,3.0,0.0,60,0.00,,,0.00,WeatherTracker,2013-05-29 00:30:00,
2013-05-28 20:40:00,64.5,50.7,30.16,West,259,1.0,0.0,61,0.00,,,0.00,WeatherTracker,2013-05-29 00:40:00,
2013-05-28 20:45:00,64.1,50.8,30.16,West,264,1.0,0.0,62,0.00,,,0.00,WeatherTracker,2013-05-29 00:45:00,
2013-05-28 20:50:00,63.9,51.1,30.16,WSW,247,1.0,0.0,63,0.00,,,0.00,WeatherTracker,2013-05-29 00:50:00,
2013-05-28 20:55:00,63.6,50.8,30.17,WSW,248,2.0,0.0,63,0.00,,,0.00,WeatherTracker,2013-05-29 00:55:00,
2013-05-28 21:00:00,63.2,50.8,30.17,West,260,1.0,0.0,64,0.00,,,0.00,WeatherTracker,2013-05-29 01:00:00,
2013-05-28 21:10:00,62.5,51.0,30.17,WSW,256,1.0,0.0,66,0.00,,,0.00,WeatherTracker,2013-05-29 01:10:00,
2013-05-28 21:15:00,62.2,50.7,30.17,West,263,2.0,0.0,66,0.00,,,0.00,WeatherTracker,2013-05-29 01:15:00,
2013-05-28 21:25:00,61.7,50.6,30.18,West,262,4.0,0.0,67,0.00,,,0.00,WeatherTracker,2013-05-29 01:25:00,
2013-05-28 21:30:00,61.5,50.4,30.18,SW,223,3.0,0.0,67,0.00,,,0.00,WeatherTracker,2013-05-29 01:30:00,
2013-05-28 21:35:00,61.3,49.8,30.18,West,259,5.0,0.0,66,0.00,,,0.00,WeatherTracker,2013-05-29 01:35:00,
2013-05-28 21:45:00,61.2,50.2,30.18,WNW,301,3.0,0.0,67,0.00,,,0.00,WeatherTracker,2013-05-29 01:45:00,
2013-05-28 21:55:00,60.9,49.9,30.18,WSW,252,1.0,0.0,67,0.00,,,0.00,WeatherTracker,2013-05-29 01:55:00,
2013-05-28 22:00:00,60.8,50.2,30.18,WSW,250,2.0,0.0,68,0.00,,,0.00,WeatherTracker,2013-05-29 02:00:00,
2013-05-28 22:05:00,60.7,50.5,30.18,WSW,255,1.0,0.0,69,0.00,,,0.00,WeatherTracker,2013-05-29 02:05:00,
2013-05-28 22:15:00,60.3,50.5,30.19,WNW,287,3.0,0.0,70,0.00,,,0.00,WeatherTracker,2013-05-29 02:15:00,
2013-05-28 22:25:00,60.2,50.8,30.18,WSW,243,2.0,0.0,71,0.00,,,0.00,WeatherTracker,2013-05-29 02:25:00,
2013-05-28 22:35:00,60.1,51.0,30.19,West,266,0.0,0.0,72,0.00,,,0.00,WeatherTracker,2013-05-29 02:35:00,
2013-05-28 22:40:00,60.1,51.0,30.18,West,269,1.0,0.0,72,0.00,,,0.00,WeatherTracker,2013-05-29 02:40:00,
2013-05-28 22:50:00,60.1,51.8,30.19,WSW,258,4.0,0.0,74,0.00,,,0.00,WeatherTracker,2013-05-29 02:50:00,
2013-05-28 22:55:00,60.2,52.2,30.19,West,277,3.0,0.0,75,0.00,,,0.00,WeatherTracker,2013-05-29 02:55:00,
2013-05-28 23:00:00,60.2,52.2,30.18,West,269,2.0,0.0,75,0.00,,,0.00,WeatherTracker,2013-05-29 03:00:00,
2013-05-28 23:05:00,60.2,52.6,30.18,West,263,2.0,0.0,76,0.00,,,0.00,WeatherTracker,2013-05-29 03:05:00,
2013-05-28 23:10:00,60.3,53.1,30.18,West,270,6.0,0.0,77,0.00,,,0.00,WeatherTracker,2013-05-29 03:10:00,
2013-05-28 23:15:00,60.3,53.1,30.18,WSW,249,3.0,0.0,77,0.00,,,0.00,WeatherTracker,2013-05-29 03:15:00,
2013-05-28 23:25:00,60.2,53.3,30.19,WSW,250,2.0,0.0,78,0.00,,,0.00,WeatherTracker,2013-05-29 03:25:00,
2013-05-28 23:35:00,60.1,53.2,30.18,West,262,0.0,0.0,78,0.00,,,0.00,WeatherTracker,2013-05-29 03:35:00,
2013-05-28 23:45:00,60.0,53.5,30.19,WSW,252,1.0,0.0,79,0.00,,,0.00,WeatherTracker,2013-05-29 03:45:00,
2013-05-28 23:55:00,60.0,54.1,30.19,WSW,254,5.0,0.0,81,0.00,,,0.00,WeatherTracker,2013-05-29 03:55:00,